createdAt,value
2023-02-13T00:01:25.716Z,7.50
2023-02-13T00:04:00.782Z,10.00
2023-02-13T00:06:32.019Z,9.50
2023-02-13T00:09:01.131Z,8.80
2023-02-13T00:11:30.189Z,8.40
2023-02-13T00:13:59.333Z,4.60
2023-02-13T00:16:28.604Z,7.30
2023-02-13T00:19:03.242Z,9.30
2023-02-13T00:21:31.922Z,8.00
2023-02-13T00:24:00.868Z,4.20
2023-02-13T00:26:29.814Z,4.80
2023-02-13T00:29:02.393Z,8.50
2023-02-13T00:31:33.772Z,8.40
2023-02-13T00:34:03.134Z,9.10
2023-02-13T00:36:32.031Z,7.10
2023-02-13T00:39:00.898Z,6.20
2023-02-13T00:41:30.712Z,6.30
2023-02-13T00:43:59.449Z,4.50
2023-02-13T00:46:27.989Z,4.60
2023-02-13T00:48:56.764Z,3.60
2023-02-13T00:51:25.470Z,6.90
2023-02-13T00:53:54.344Z,5.40
2023-02-13T00:56:22.927Z,5.50
2023-02-13T00:58:53.347Z,6.20
2023-02-13T01:01:22.417Z,7.60
2023-02-13T01:03:51.009Z,8.70
2023-02-13T01:06:20.130Z,5.80
2023-02-13T01:08:48.917Z,6.40
2023-02-13T01:11:19.355Z,8.50
2023-02-13T01:13:48.441Z,9.20
2023-02-13T01:16:18.174Z,7.70
2023-02-13T01:18:47.451Z,10.60
2023-02-13T01:21:21.297Z,4.00
2023-02-13T01:23:54.254Z,7.70
2023-02-13T01:26:24.426Z,6.10
2023-02-13T01:28:57.929Z,5.40
2023-02-13T01:31:27.022Z,7.70
2023-02-13T01:33:58.336Z,5.20
2023-02-13T01:36:27.190Z,7.40
2023-02-13T01:38:58.645Z,5.50
2023-02-13T01:41:27.866Z,10.00
2023-02-13T01:44:00.321Z,4.30
2023-02-13T01:46:39.361Z,7.00
2023-02-13T01:49:12.349Z,5.60
2023-02-13T01:51:44.382Z,7.80
2023-02-13T01:54:15.619Z,10.40
2023-02-13T01:59:34.478Z,6.90
2023-02-13T02:02:03.908Z,5.10
2023-02-13T02:04:34.343Z,4.60
2023-02-13T02:07:20.731Z,5.60
2023-02-13T02:09:52.696Z,5.50
2023-02-13T02:12:32.236Z,6.90
2023-02-13T02:15:00.929Z,5.40
2023-02-13T02:17:34.401Z,4.40
2023-02-13T02:20:02.814Z,7.00
2023-02-13T02:22:54.319Z,7.80
2023-02-13T02:25:28.433Z,4.70
2023-02-13T02:28:22.136Z,6.20
2023-02-13T02:31:13.263Z,3.90
2023-02-13T02:34:01.048Z,4.00
2023-02-13T02:36:55.203Z,5.90
2023-02-13T02:42:10.933Z,8.10
2023-02-13T02:45:12.696Z,6.40
2023-02-13T02:50:43.480Z,11.20
2023-02-13T02:53:37.839Z,11.00
2023-02-13T02:56:14.816Z,11.30
2023-02-13T02:59:09.821Z,6.00
2023-02-13T03:01:57.315Z,7.30
2023-02-13T03:04:59.203Z,7.70
2023-02-13T03:07:28.119Z,9.80
2023-02-13T03:10:17.568Z,13.80
2023-02-13T03:13:21.745Z,8.80
2023-02-13T03:16:11.685Z,8.50
2023-02-13T03:19:02.677Z,8.70
2023-02-13T03:22:06.175Z,6.40
2023-02-13T03:24:59.435Z,11.00
2023-02-13T03:28:10.433Z,14.10
2023-02-13T03:30:42.198Z,8.60
2023-02-13T03:33:49.356Z,7.90
2023-02-13T03:36:48.877Z,6.80
2023-02-13T03:39:31.294Z,8.30
2023-02-13T03:42:41.545Z,6.80
2023-02-13T03:45:31.699Z,9.20
2023-02-13T03:48:00.718Z,5.40
2023-02-13T03:50:29.300Z,7.90
2023-02-13T03:53:06.690Z,7.40
2023-02-13T03:55:56.987Z,6.00
2023-02-13T03:58:50.525Z,14.00
2023-02-13T04:01:19.736Z,8.70
2023-02-13T04:03:59.816Z,8.60
2023-02-13T04:06:51.925Z,8.40
2023-02-13T04:09:20.259Z,8.00
2023-02-13T04:11:52.076Z,7.40
2023-02-13T04:17:02.928Z,8.80
2023-02-13T04:19:32.514Z,7.40
2023-02-13T04:22:05.545Z,13.60
2023-02-13T04:24:34.253Z,14.30
2023-02-13T04:27:03.840Z,10.60
2023-02-13T04:29:32.728Z,7.70
2023-02-13T04:32:01.251Z,7.70
2023-02-13T04:34:30.206Z,9.10
2023-02-13T04:36:59.098Z,9.60
2023-02-13T04:39:28.189Z,9.90
2023-02-13T04:41:56.712Z,11.40
2023-02-13T04:44:25.376Z,8.50
2023-02-13T04:46:53.968Z,8.60
2023-02-13T04:49:24.621Z,7.80
2023-02-13T04:51:54.180Z,8.90
2023-02-13T04:54:23.484Z,5.80
2023-02-13T04:56:51.692Z,8.20
2023-02-13T04:59:20.858Z,7.60
2023-02-13T05:01:49.192Z,11.90
2023-02-13T05:04:18.160Z,12.30
2023-02-13T05:06:46.805Z,9.10
2023-02-13T05:09:15.594Z,12.30
2023-02-13T05:11:43.994Z,13.60
2023-02-13T05:14:12.877Z,10.80
2023-02-13T05:16:41.852Z,9.20
2023-02-13T05:19:10.438Z,9.80
2023-02-13T05:21:57.704Z,8.30
2023-02-13T05:24:26.916Z,7.70
2023-02-13T05:26:55.845Z,7.00
2023-02-13T05:29:24.326Z,7.90
2023-02-13T05:31:54.645Z,8.80
2023-02-13T05:34:25.646Z,9.80
2023-02-13T05:36:54.891Z,9.00
2023-02-13T05:39:23.378Z,9.30
2023-02-13T05:41:51.661Z,7.90
2023-02-13T05:44:20.336Z,9.30
2023-02-13T05:46:49.716Z,9.20
2023-02-13T05:49:20.176Z,8.20
2023-02-13T05:51:49.327Z,13.10
2023-02-13T05:54:18.973Z,11.10
2023-02-13T05:57:04.245Z,9.30
2023-02-13T05:59:44.517Z,13.10
2023-02-13T06:02:15.159Z,10.80
2023-02-13T06:04:45.549Z,8.20
2023-02-13T06:07:14.501Z,15.60
2023-02-13T06:09:45.210Z,10.10
2023-02-13T06:12:16.521Z,14.50
2023-02-13T06:14:45.618Z,14.40
2023-02-13T06:17:17.794Z,11.40
2023-02-13T06:19:47.184Z,10.70
2023-02-13T06:22:18.242Z,9.90
2023-02-13T06:24:52.228Z,10.70
2023-02-13T06:27:24.020Z,15.40
2023-02-13T06:29:53.200Z,9.90
2023-02-13T06:32:22.187Z,9.50
2023-02-13T06:34:52.113Z,9.10
2023-02-13T06:37:21.516Z,11.70
2023-02-13T06:39:52.588Z,12.30
2023-02-13T06:42:21.832Z,7.10
2023-02-13T06:44:51.215Z,11.40
2023-02-13T06:47:21.875Z,9.90
2023-02-13T06:49:51.070Z,7.60
2023-02-13T06:52:20.722Z,11.40
2023-02-13T06:54:51.162Z,10.10
2023-02-13T06:57:21.121Z,7.80
2023-02-13T06:59:52.337Z,9.30
2023-02-13T07:04:54.551Z,8.10
2023-02-13T07:07:23.543Z,10.60
2023-02-13T07:09:52.574Z,13.20
2023-02-13T07:12:24.691Z,7.80
2023-02-13T07:14:53.895Z,9.60
2023-02-13T07:17:23.093Z,11.20
2023-02-13T07:19:51.881Z,10.10
2023-02-13T07:22:20.995Z,12.40
2023-02-13T07:24:50.075Z,10.50
2023-02-13T07:27:18.785Z,10.60
2023-02-13T07:29:47.955Z,11.30
2023-02-13T07:32:16.959Z,8.20
2023-02-13T07:35:00.661Z,9.90
2023-02-13T07:37:31.925Z,9.70
2023-02-13T07:40:01.133Z,9.30
2023-02-13T07:42:36.385Z,11.90
2023-02-13T07:45:06.581Z,11.40
2023-02-13T07:47:36.125Z,15.30
2023-02-13T07:50:06.457Z,12.30
2023-02-13T07:52:38.138Z,7.20
2023-02-13T07:55:08.075Z,11.80
2023-02-13T07:57:37.216Z,12.80
2023-02-13T08:00:07.722Z,14.20
2023-02-13T08:02:41.218Z,16.60
2023-02-13T08:05:10.156Z,11.40
2023-02-13T08:07:40.432Z,12.20
2023-02-13T08:10:31.452Z,10.90
2023-02-13T08:13:00.429Z,12.80
2023-02-13T08:15:29.638Z,25.60
2023-02-13T08:17:58.959Z,13.90
2023-02-13T08:20:27.989Z,11.60
2023-02-13T08:23:03.400Z,24.20
2023-02-13T08:25:33.380Z,22.70
2023-02-13T08:28:02.501Z,18.00
2023-02-13T08:30:31.938Z,13.00
2023-02-13T08:33:01.277Z,13.00
2023-02-13T08:35:32.110Z,15.40
2023-02-13T08:38:07.734Z,13.30
2023-02-13T08:40:37.267Z,11.10
2023-02-13T08:43:06.582Z,14.10
2023-02-13T08:45:39.802Z,13.30
2023-02-13T08:48:09.921Z,10.10
2023-02-13T08:50:39.566Z,14.10
2023-02-13T08:53:08.891Z,22.50
2023-02-13T08:55:38.122Z,12.80
2023-02-13T08:58:07.276Z,22.90
2023-02-13T09:00:36.635Z,15.80
2023-02-13T09:03:05.672Z,12.60
2023-02-13T09:05:36.509Z,18.60
2023-02-13T09:08:08.401Z,14.60
2023-02-13T09:10:37.977Z,18.30
2023-02-13T09:13:06.868Z,16.50
2023-02-13T09:15:40.851Z,13.70
2023-02-13T09:18:09.821Z,15.40
2023-02-13T09:20:38.770Z,18.50
2023-02-13T09:23:07.852Z,34.80
2023-02-13T09:25:36.952Z,22.70
2023-02-13T09:28:05.745Z,20.00
2023-02-13T09:30:35.401Z,16.80
2023-02-13T09:33:05.780Z,23.10
2023-02-13T09:35:34.919Z,21.30
2023-02-13T09:38:04.086Z,23.30
2023-02-13T09:40:50.630Z,22.40
2023-02-13T09:43:30.857Z,19.10
2023-02-13T09:46:02.322Z,17.50
2023-02-13T09:48:33.847Z,18.40
2023-02-13T09:51:02.719Z,20.00
2023-02-13T09:53:36.554Z,21.10
2023-02-13T09:56:16.684Z,11.90
2023-02-13T09:58:51.038Z,12.80
2023-02-13T10:01:42.592Z,34.50
2023-02-13T10:04:18.375Z,50.30
2023-02-13T10:06:51.460Z,31.20
2023-02-13T10:09:27.824Z,30.30
2023-02-13T10:12:23.140Z,36.50
2023-02-13T10:15:12.915Z,22.30
2023-02-13T10:17:51.131Z,20.90
2023-02-13T10:20:37.010Z,46.10
2023-02-13T10:23:18.098Z,53.10
2023-02-13T10:26:02.803Z,58.00
2023-02-13T10:28:39.516Z,36.70
2023-02-13T10:31:17.567Z,58.30
2023-02-13T10:33:51.258Z,46.80
2023-02-13T10:36:26.014Z,32.10
2023-02-13T10:39:08.270Z,25.00
2023-02-13T10:41:58.030Z,20.90
2023-02-13T10:44:29.440Z,28.00
2023-02-13T10:47:17.221Z,51.30
2023-02-13T10:49:48.887Z,41.90
2023-02-13T10:52:27.496Z,47.70
2023-02-13T10:55:27.747Z,49.20
2023-02-13T10:58:20.784Z,31.90
2023-02-13T11:00:59.001Z,14.60
2023-02-13T11:03:29.143Z,29.20
2023-02-13T11:05:58.895Z,23.60
2023-02-13T11:08:33.495Z,20.50
2023-02-13T11:11:02.265Z,19.30
2023-02-13T11:13:32.276Z,19.40
2023-02-13T11:16:03.461Z,13.10
2023-02-13T11:18:39.028Z,18.60
2023-02-13T11:21:16.929Z,24.50
2023-02-13T11:23:50.059Z,36.00
2023-02-13T11:26:24.908Z,20.10
2023-02-13T11:29:06.077Z,18.30
2023-02-13T11:31:37.375Z,12.80
2023-02-13T11:34:20.402Z,12.90
2023-02-13T11:37:12.035Z,13.30
2023-02-13T11:39:43.832Z,18.90
2023-02-13T11:42:30.196Z,22.20
2023-02-13T11:45:07.084Z,32.60
2023-02-13T11:47:43.323Z,35.90
2023-02-13T11:50:24.284Z,24.10
2023-02-13T11:53:20.116Z,24.80
2023-02-13T11:56:14.292Z,25.30
2023-02-13T11:58:48.321Z,26.20
2023-02-13T12:01:20.589Z,21.30
2023-02-13T12:04:17.024Z,16.00
2023-02-13T12:07:05.185Z,25.70
2023-02-13T12:09:34.693Z,28.70
2023-02-13T12:12:07.790Z,14.20
2023-02-13T12:14:41.351Z,24.90
2023-02-13T12:17:32.720Z,18.30
2023-02-13T12:20:03.319Z,15.80
2023-02-13T12:22:39.167Z,13.30
2023-02-13T12:25:14.721Z,15.20
2023-02-13T12:27:44.153Z,14.30
2023-02-13T12:30:12.697Z,13.40
2023-02-13T12:32:56.011Z,8.90
2023-02-13T12:35:53.273Z,13.20
2023-02-13T12:38:22.725Z,6.70
2023-02-13T12:40:59.837Z,9.30
2023-02-13T12:44:00.552Z,14.30
2023-02-13T12:46:42.629Z,12.00
2023-02-13T12:49:37.692Z,8.40
2023-02-13T12:52:32.456Z,11.30
2023-02-13T12:55:29.439Z,21.30
2023-02-13T12:58:22.800Z,17.10
2023-02-13T13:01:04.083Z,12.30
2023-02-13T13:04:24.274Z,9.60
2023-02-13T13:07:24.654Z,14.60
2023-02-13T13:10:17.368Z,21.40
2023-02-13T13:12:54.353Z,10.40
2023-02-13T13:15:55.884Z,13.30
2023-02-13T13:18:46.847Z,8.40
2023-02-13T13:21:43.224Z,22.60
2023-02-13T13:24:29.324Z,15.80
2023-02-13T13:26:58.522Z,14.20
2023-02-13T13:29:46.085Z,12.50
2023-02-13T13:32:18.189Z,15.50
2023-02-13T13:34:47.046Z,16.50
2023-02-13T13:38:02.622Z,14.00
2023-02-13T13:40:46.878Z,19.20
2023-02-13T13:43:40.821Z,20.70
2023-02-13T13:46:23.671Z,12.60
2023-02-13T13:49:29.643Z,18.70
2023-02-13T13:52:20.951Z,29.50
2023-02-13T13:54:53.573Z,25.50
2023-02-13T13:57:24.620Z,15.90
2023-02-13T14:00:24.995Z,15.60
2023-02-13T14:03:00.601Z,17.40
2023-02-13T14:05:32.460Z,15.90
2023-02-13T14:08:39.920Z,17.90
2023-02-13T14:11:27.593Z,18.90
2023-02-13T14:13:59.749Z,21.80
2023-02-13T14:16:44.375Z,18.70
2023-02-13T14:19:32.963Z,16.30
2023-02-13T14:22:38.206Z,12.40
2023-02-13T14:25:07.922Z,24.90
2023-02-13T14:27:38.372Z,22.40
2023-02-13T14:30:29.073Z,12.90
2023-02-13T14:33:01.313Z,17.90
2023-02-13T14:35:32.078Z,14.20
2023-02-13T14:38:02.613Z,17.00
2023-02-13T14:40:49.700Z,35.90
2023-02-13T14:43:46.427Z,43.70
2023-02-13T14:46:30.260Z,67.50
2023-02-13T14:49:14.956Z,37.50
2023-02-13T14:52:07.126Z,45.30
2023-02-13T14:54:43.036Z,34.60
2023-02-13T14:57:14.704Z,49.60
2023-02-13T14:59:48.594Z,29.10
2023-02-13T15:02:28.991Z,18.80
2023-02-13T15:05:03.788Z,19.90
2023-02-13T15:07:35.949Z,25.40
2023-02-13T15:10:08.071Z,24.90
2023-02-13T15:12:37.563Z,28.90
2023-02-13T15:16:11.172Z,28.80
2023-02-13T15:18:48.105Z,18.10
2023-02-13T15:21:19.178Z,17.60
2023-02-13T15:23:53.075Z,17.80
2023-02-13T15:26:24.136Z,25.10
2023-02-13T15:29:20.837Z,39.80
2023-02-13T15:31:54.744Z,83.80
2023-02-13T15:34:29.780Z,112.80
2023-02-13T15:36:58.969Z,126.00
2023-02-13T15:39:30.377Z,98.80
2023-02-13T15:42:00.805Z,58.50
2023-02-13T15:44:37.004Z,38.40
2023-02-13T15:47:15.255Z,52.30
2023-02-13T15:49:46.818Z,48.60
2023-02-13T15:52:20.349Z,45.00
2023-02-13T15:54:53.930Z,62.30
2023-02-13T15:57:23.981Z,130.70
2023-02-13T15:59:54.512Z,76.40
2023-02-13T16:02:40.769Z,62.40
2023-02-13T16:05:11.800Z,38.50
2023-02-13T16:07:50.063Z,40.40
2023-02-13T16:10:32.004Z,37.20
2023-02-13T16:13:07.537Z,32.10
2023-02-13T16:15:42.331Z,80.10
2023-02-13T16:18:19.314Z,41.80
2023-02-13T16:20:48.213Z,40.30
2023-02-13T16:23:18.310Z,43.40
2023-02-13T16:25:47.788Z,40.40
2023-02-13T16:28:23.593Z,41.40
2023-02-13T16:31:01.273Z,33.60
2023-02-13T16:33:32.229Z,27.80
2023-02-13T16:36:27.625Z,17.20
2023-02-13T16:38:59.104Z,17.70
2023-02-13T16:41:29.787Z,15.70
2023-02-13T16:43:59.438Z,14.40
2023-02-13T16:46:36.518Z,15.90
2023-02-13T16:49:08.673Z,12.30
2023-02-13T16:51:41.959Z,13.90
2023-02-13T16:54:10.959Z,14.00
2023-02-13T16:56:42.718Z,16.80
2023-02-13T16:59:27.169Z,13.30
2023-02-13T17:02:22.114Z,15.60
2023-02-13T17:04:52.211Z,16.10
2023-02-13T17:07:23.893Z,16.20
2023-02-13T17:09:54.416Z,24.10
2023-02-13T17:12:24.008Z,26.40
2023-02-13T17:14:53.680Z,25.80
2023-02-13T17:17:23.333Z,23.30
2023-02-13T17:19:52.420Z,44.80
2023-02-13T17:22:36.584Z,46.90
2023-02-13T17:25:15.652Z,92.00
2023-02-13T17:27:44.899Z,94.80
2023-02-13T17:30:25.824Z,66.70
2023-02-13T17:33:10.961Z,97.90
2023-02-13T17:35:40.586Z,45.50
2023-02-13T17:38:10.855Z,35.50
2023-02-13T17:40:43.942Z,23.00
2023-02-13T17:43:17.120Z,27.90
2023-02-13T17:45:46.851Z,23.30
2023-02-13T17:48:15.816Z,32.40
2023-02-13T17:50:44.956Z,27.40
2023-02-13T17:53:32.949Z,28.00
2023-02-13T17:56:02.182Z,35.10
2023-02-13T17:58:31.246Z,36.00
2023-02-13T18:01:02.209Z,37.70
2023-02-13T18:03:55.429Z,34.60
2023-02-13T18:06:24.742Z,28.40
2023-02-13T18:08:57.937Z,30.90
2023-02-13T18:11:32.970Z,31.40
2023-02-13T18:14:02.505Z,33.30
2023-02-13T18:16:32.432Z,34.00
2023-02-13T18:19:01.681Z,28.40
2023-02-13T18:21:30.879Z,31.40
2023-02-13T18:23:59.968Z,40.10
2023-02-13T18:26:48.964Z,31.60
2023-02-13T18:29:19.275Z,42.90
2023-02-13T18:31:48.760Z,31.40
2023-02-13T18:34:18.506Z,37.00
2023-02-13T18:36:48.324Z,55.90
2023-02-13T18:39:17.914Z,30.70
2023-02-13T18:41:48.935Z,39.20
2023-02-13T18:44:28.430Z,60.60
2023-02-13T18:46:59.768Z,46.40
2023-02-13T18:49:29.126Z,44.80
2023-02-13T18:51:58.342Z,114.10
2023-02-13T18:54:29.670Z,123.00
2023-02-13T18:56:58.863Z,104.50
2023-02-13T18:59:29.093Z,74.80
2023-02-13T19:01:59.006Z,41.10
2023-02-13T19:04:28.314Z,33.40
2023-02-13T19:06:59.514Z,28.00
2023-02-13T19:09:29.162Z,27.70
2023-02-13T19:11:59.372Z,31.70
2023-02-13T19:14:38.452Z,35.80
2023-02-13T19:17:10.832Z,35.00
2023-02-13T19:19:44.896Z,39.80
2023-02-13T19:24:45.567Z,42.70
2023-02-13T19:27:16.675Z,37.80
2023-02-13T19:32:26.133Z,30.60
2023-02-13T19:34:57.533Z,34.30
2023-02-13T19:37:30.674Z,39.00
2023-02-13T19:40:05.502Z,36.80
2023-02-13T19:42:35.108Z,33.60
2023-02-13T19:45:04.560Z,37.20
2023-02-13T19:47:34.429Z,43.30
2023-02-13T19:50:03.744Z,34.20
2023-02-13T19:52:32.887Z,46.90
2023-02-13T19:55:02.478Z,45.30
2023-02-13T19:57:33.959Z,52.40
2023-02-13T20:00:24.579Z,52.30
2023-02-13T20:03:02.225Z,82.60
2023-02-13T20:05:40.874Z,59.80
2023-02-13T20:08:12.343Z,92.00
2023-02-13T20:10:51.297Z,81.40
2023-02-13T20:13:26.949Z,41.00
2023-02-13T20:15:56.819Z,39.30
2023-02-13T20:18:26.032Z,35.50
2023-02-13T20:20:55.960Z,34.50
2023-02-13T20:23:25.991Z,32.10
2023-02-13T20:26:04.159Z,31.60
2023-02-13T20:31:19.886Z,33.30
2023-02-13T20:33:51.262Z,35.50
2023-02-13T20:36:29.264Z,39.10
2023-02-13T20:39:02.087Z,36.30
2023-02-13T20:41:37.257Z,29.60
2023-02-13T20:44:08.995Z,32.80
2023-02-13T20:46:41.498Z,34.50
2023-02-13T20:49:19.265Z,34.60
2023-02-13T20:51:49.383Z,34.60
2023-02-13T20:54:19.105Z,32.50
2023-02-13T20:56:49.107Z,35.30
2023-02-13T20:59:19.234Z,33.60
2023-02-13T21:01:51.399Z,25.10
2023-02-13T21:04:21.513Z,29.30
2023-02-13T21:06:50.926Z,29.70
2023-02-13T21:09:20.612Z,29.20
2023-02-13T21:14:21.002Z,28.80
2023-02-13T21:16:50.254Z,31.80
2023-02-13T21:19:22.230Z,25.30
2023-02-13T21:24:22.075Z,27.90
2023-02-13T21:26:52.786Z,29.60
2023-02-13T21:29:21.624Z,23.90
2023-02-13T21:31:51.570Z,25.20
2023-02-13T21:34:19.970Z,26.40
2023-02-13T21:36:50.320Z,31.90
2023-02-13T21:39:19.191Z,30.10
2023-02-13T21:41:47.856Z,30.50
2023-02-13T21:44:16.899Z,28.40
2023-02-13T21:46:45.637Z,26.90
2023-02-13T21:49:16.257Z,34.90
2023-02-13T21:51:45.648Z,32.40
2023-02-13T21:54:35.784Z,28.40
2023-02-13T21:57:04.164Z,32.90
2023-02-13T21:59:33.355Z,32.90
2023-02-13T22:02:03.094Z,30.20
2023-02-13T22:04:32.013Z,31.60
2023-02-13T22:07:00.689Z,31.10
2023-02-13T22:09:30.980Z,35.00
2023-02-13T22:12:00.169Z,24.40
2023-02-13T22:14:29.061Z,31.10
2023-02-13T22:16:57.710Z,30.60
2023-02-13T22:19:26.940Z,32.20
2023-02-13T22:21:55.136Z,28.90
2023-02-13T22:24:24.051Z,24.20
2023-02-13T22:26:53.280Z,28.90
2023-02-13T22:29:23.352Z,27.00
2023-02-13T22:31:52.277Z,24.50
2023-02-13T22:34:21.520Z,27.90
2023-02-13T22:36:51.146Z,23.90
2023-02-13T22:39:20.010Z,23.80
2023-02-13T22:41:50.437Z,28.50
2023-02-13T22:44:18.887Z,25.30
2023-02-13T22:46:48.109Z,30.90
2023-02-13T22:49:16.901Z,26.70
2023-02-13T22:51:45.866Z,27.80
2023-02-13T22:54:14.991Z,27.50
2023-02-13T22:56:44.533Z,30.80
2023-02-13T22:59:14.306Z,24.70
2023-02-13T23:01:44.456Z,24.20
2023-02-13T23:04:13.209Z,24.80
2023-02-13T23:06:43.249Z,24.70
2023-02-13T23:09:11.987Z,28.80
2023-02-13T23:11:59.566Z,48.50
2023-02-13T23:14:28.451Z,94.00
2023-02-13T23:17:16.048Z,85.30
2023-02-13T23:19:45.862Z,97.10
2023-02-13T23:22:16.710Z,130.20
2023-02-13T23:24:45.156Z,142.10
2023-02-13T23:27:15.981Z,127.50
2023-02-13T23:29:44.595Z,101.50
2023-02-13T23:32:13.810Z,91.30
2023-02-13T23:34:42.889Z,91.40
2023-02-13T23:37:11.778Z,46.00
2023-02-13T23:39:40.672Z,40.70
2023-02-13T23:42:09.926Z,34.20
2023-02-13T23:44:38.896Z,43.00
2023-02-13T23:47:07.658Z,93.00
2023-02-13T23:49:37.008Z,89.20
2023-02-13T23:52:05.735Z,45.00
2023-02-13T23:54:34.215Z,35.20
2023-02-13T23:57:04.133Z,26.40
2023-02-13T23:59:33.839Z,39.40
